createdAt,value
2022-11-07T00:02:07.284Z,11.80
2022-11-07T00:04:37.005Z,12.40
2022-11-07T00:07:08.416Z,10.77
2022-11-07T00:09:42.884Z,11.20
2022-11-07T00:12:17.061Z,13.07
2022-11-07T00:14:46.309Z,12.45
2022-11-07T00:17:15.464Z,12.63
2022-11-07T00:19:44.781Z,12.25
2022-11-07T00:22:15.928Z,12.38
2022-11-07T00:24:45.171Z,11.82
2022-11-07T00:27:14.397Z,12.63
2022-11-07T00:29:44.036Z,12.60
2022-11-07T00:32:13.198Z,12.93
2022-11-07T00:34:42.474Z,12.75
2022-11-07T00:37:11.651Z,12.55
2022-11-07T00:39:43.196Z,12.77
2022-11-07T00:42:12.396Z,12.30
2022-11-07T00:44:41.627Z,13.60
2022-11-07T00:47:10.834Z,13.55
2022-11-07T00:49:39.893Z,12.40
2022-11-07T00:52:09.043Z,13.70
2022-11-07T00:54:43.211Z,14.52
2022-11-07T00:57:14.349Z,13.63
2022-11-07T00:59:48.510Z,13.45
2022-11-07T01:02:17.916Z,13.38
2022-11-07T01:05:05.422Z,13.43
2022-11-07T01:07:35.309Z,12.95
2022-11-07T01:10:05.379Z,14.25
2022-11-07T01:12:37.822Z,14.15
2022-11-07T01:15:07.940Z,14.25
2022-11-07T01:17:37.117Z,14.13
2022-11-07T01:20:13.201Z,13.20
2022-11-07T01:22:42.752Z,13.90
2022-11-07T01:25:11.932Z,14.10
2022-11-07T01:27:43.332Z,14.60
2022-11-07T01:30:13.742Z,14.00
2022-11-07T01:32:42.833Z,13.88
2022-11-07T01:35:12.089Z,13.93
2022-11-07T01:37:41.201Z,14.98
2022-11-07T01:40:15.579Z,14.77
2022-11-07T01:42:47.432Z,15.15
2022-11-07T01:45:30.543Z,15.07
2022-11-07T01:48:02.506Z,14.60
2022-11-07T01:53:01.853Z,13.93
2022-11-07T01:55:34.398Z,14.38
2022-11-07T01:58:10.114Z,14.88
2022-11-07T02:00:39.843Z,14.55
2022-11-07T02:03:12.998Z,14.00
2022-11-07T02:05:54.802Z,14.65
2022-11-07T02:08:35.051Z,15.07
2022-11-07T02:11:05.703Z,14.77
2022-11-07T02:13:36.909Z,14.52
2022-11-07T02:16:07.599Z,15.13
2022-11-07T02:18:38.972Z,15.52
2022-11-07T02:21:26.232Z,15.18
2022-11-07T02:24:08.314Z,15.75
2022-11-07T02:29:14.758Z,14.10
2022-11-07T02:31:43.963Z,13.88
2022-11-07T02:34:18.244Z,13.57
2022-11-07T02:36:47.495Z,13.63
2022-11-07T02:39:16.732Z,13.43
2022-11-07T02:41:54.670Z,13.45
2022-11-07T02:44:24.555Z,13.10
2022-11-07T02:46:54.053Z,12.90
2022-11-07T02:49:23.508Z,12.93
2022-11-07T02:51:53.457Z,12.52
2022-11-07T02:54:22.688Z,12.90
2022-11-07T02:56:53.973Z,12.60
2022-11-07T02:59:26.963Z,12.98
2022-11-07T03:01:56.688Z,13.23
2022-11-07T03:04:25.954Z,12.30
2022-11-07T03:06:55.371Z,12.30
2022-11-07T03:09:24.383Z,12.43
2022-11-07T03:11:55.633Z,15.30
2022-11-07T03:14:25.591Z,13.13
2022-11-07T03:16:55.014Z,13.23
2022-11-07T03:19:30.447Z,12.65
2022-11-07T03:22:00.909Z,12.30
2022-11-07T03:24:31.870Z,12.15
2022-11-07T03:27:09.168Z,11.90
2022-11-07T03:29:38.280Z,11.30
2022-11-07T03:32:07.758Z,11.85
2022-11-07T03:34:37.283Z,11.90
2022-11-07T03:37:07.134Z,12.38
2022-11-07T03:39:36.461Z,11.60
2022-11-07T03:42:06.044Z,12.13
2022-11-07T03:44:46.061Z,11.55
2022-11-07T03:47:15.468Z,11.27
2022-11-07T03:49:44.685Z,10.93
2022-11-07T03:52:13.750Z,11.07
2022-11-07T03:54:42.998Z,10.60
2022-11-07T03:57:12.352Z,11.00
2022-11-07T03:59:43.373Z,10.57
2022-11-07T04:02:17.765Z,10.68
2022-11-07T04:04:47.215Z,10.32
2022-11-07T04:07:18.394Z,10.35
2022-11-07T04:09:47.667Z,8.05
2022-11-07T04:12:29.620Z,10.52
2022-11-07T04:15:18.670Z,10.20
2022-11-07T04:17:47.717Z,10.48
2022-11-07T04:20:17.042Z,10.10
2022-11-07T04:22:46.348Z,10.55
2022-11-07T04:25:15.550Z,9.90
2022-11-07T04:27:42.780Z,9.77
2022-11-07T04:30:24.052Z,10.30
2022-11-07T04:32:54.998Z,9.13
2022-11-07T04:35:26.204Z,10.00
2022-11-07T04:38:03.000Z,7.32
2022-11-07T04:40:32.763Z,7.45
2022-11-07T04:43:03.169Z,9.15
2022-11-07T04:45:35.688Z,9.20
2022-11-07T04:48:05.232Z,8.73
2022-11-07T04:50:34.381Z,9.30
2022-11-07T04:53:08.612Z,8.95
2022-11-07T04:55:37.965Z,8.63
2022-11-07T04:58:07.031Z,8.02
2022-11-07T05:00:38.501Z,8.88
2022-11-07T05:03:07.800Z,8.93
2022-11-07T05:05:37.345Z,9.45
2022-11-07T05:08:18.240Z,8.95
2022-11-07T05:10:52.500Z,8.30
2022-11-07T05:13:26.946Z,7.93
2022-11-07T05:15:58.073Z,8.52
2022-11-07T05:18:27.357Z,8.93
2022-11-07T05:20:56.549Z,8.73
2022-11-07T05:23:27.486Z,7.88
2022-11-07T05:26:01.638Z,8.38
2022-11-07T05:28:38.776Z,7.70
2022-11-07T05:31:16.268Z,8.15
2022-11-07T05:33:46.031Z,8.07
2022-11-07T05:36:22.659Z,7.43
2022-11-07T05:38:53.111Z,7.88
2022-11-07T05:41:23.752Z,7.25
2022-11-07T05:43:52.904Z,8.15
2022-11-07T05:46:24.316Z,8.10
2022-11-07T05:48:58.083Z,7.03
2022-11-07T05:51:30.148Z,7.25
2022-11-07T05:53:59.184Z,8.30
2022-11-07T05:56:28.460Z,7.40
2022-11-07T05:59:02.617Z,8.00
2022-11-07T06:01:40.148Z,7.57
2022-11-07T06:04:09.986Z,7.18
2022-11-07T06:06:39.216Z,7.30
2022-11-07T06:09:08.309Z,7.22
2022-11-07T06:11:42.720Z,8.27
2022-11-07T06:14:16.842Z,7.68
2022-11-07T06:16:48.105Z,7.32
2022-11-07T06:19:17.414Z,7.55
2022-11-07T06:21:46.546Z,7.90
2022-11-07T06:24:22.229Z,7.68
2022-11-07T06:26:51.434Z,7.30
2022-11-07T06:29:27.232Z,7.90
2022-11-07T06:31:58.653Z,7.30
2022-11-07T06:34:33.064Z,7.32
2022-11-07T06:37:03.560Z,7.65
2022-11-07T06:39:32.748Z,8.52
2022-11-07T06:42:01.896Z,7.35
2022-11-07T06:44:31.105Z,7.85
2022-11-07T06:47:08.178Z,6.82
2022-11-07T06:49:37.292Z,7.82
2022-11-07T06:52:06.914Z,7.90
2022-11-07T06:54:36.101Z,7.95
2022-11-07T06:57:05.292Z,7.45
2022-11-07T06:59:34.354Z,7.85
2022-11-07T07:02:03.648Z,6.65
2022-11-07T07:04:34.853Z,7.55
2022-11-07T07:07:04.056Z,8.18
2022-11-07T07:09:33.344Z,7.88
2022-11-07T07:12:02.682Z,8.05
2022-11-07T07:14:31.853Z,7.40
2022-11-07T07:17:01.107Z,7.13
2022-11-07T07:19:30.309Z,7.72
2022-11-07T07:22:01.577Z,8.00
2022-11-07T07:24:30.935Z,7.05
2022-11-07T07:26:59.969Z,6.95
2022-11-07T07:29:29.292Z,7.15
2022-11-07T07:31:58.446Z,7.30
2022-11-07T07:34:27.553Z,6.22
2022-11-07T07:36:56.776Z,6.38
2022-11-07T07:39:28.249Z,6.93
2022-11-07T07:41:57.562Z,7.22
2022-11-07T07:44:26.778Z,6.53
2022-11-07T07:46:56.375Z,6.93
2022-11-07T07:49:25.514Z,6.40
2022-11-07T07:51:54.781Z,6.85
2022-11-07T07:54:23.917Z,7.32
2022-11-07T07:56:55.366Z,6.95
2022-11-07T07:59:24.580Z,6.80
2022-11-07T08:01:56.929Z,7.28
2022-11-07T08:04:26.865Z,6.25
2022-11-07T08:06:56.009Z,7.18
2022-11-07T08:09:35.979Z,7.03
2022-11-07T08:12:13.061Z,6.50
2022-11-07T08:14:42.687Z,6.38
2022-11-07T08:17:11.899Z,6.65
2022-11-07T08:19:41.054Z,7.40
2022-11-07T08:22:16.078Z,6.82
2022-11-07T08:24:45.364Z,7.10
2022-11-07T08:27:16.543Z,7.00
2022-11-07T08:29:45.742Z,6.72
2022-11-07T08:32:15.034Z,7.47
2022-11-07T08:34:44.336Z,6.95
2022-11-07T08:37:13.473Z,7.15
2022-11-07T08:39:42.760Z,7.03
2022-11-07T08:42:12.243Z,7.07
2022-11-07T08:44:43.597Z,7.55
2022-11-07T08:47:18.556Z,6.95
2022-11-07T08:49:48.021Z,7.35
2022-11-07T08:52:17.570Z,6.40
2022-11-07T08:54:47.152Z,6.70
2022-11-07T08:57:16.340Z,6.72
2022-11-07T08:59:47.680Z,7.18
2022-11-07T09:05:09.572Z,6.88
2022-11-07T09:07:41.184Z,6.72
2022-11-07T09:10:11.480Z,7.53
2022-11-07T09:12:46.855Z,6.80
2022-11-07T09:15:19.711Z,6.63
2022-11-07T09:17:50.606Z,6.35
2022-11-07T09:20:20.368Z,6.22
2022-11-07T09:22:49.492Z,6.50
2022-11-07T09:25:18.854Z,6.03
2022-11-07T09:27:48.141Z,6.35
2022-11-07T09:30:20.195Z,6.18
2022-11-07T09:32:58.268Z,5.72
2022-11-07T09:35:27.691Z,6.50
2022-11-07T09:37:56.969Z,6.40
2022-11-07T09:40:40.068Z,7.13
2022-11-07T09:43:32.402Z,6.88
2022-11-07T09:46:11.882Z,5.53
2022-11-07T09:48:46.086Z,5.50
2022-11-07T09:51:27.685Z,5.68
2022-11-07T09:54:02.258Z,6.45
2022-11-07T09:56:33.912Z,7.05
2022-11-07T09:59:12.930Z,6.50
2022-11-07T10:01:45.328Z,6.40
2022-11-07T10:04:24.617Z,5.82
2022-11-07T10:06:58.140Z,5.43
2022-11-07T10:09:38.825Z,6.47
2022-11-07T10:12:19.881Z,6.50
2022-11-07T10:15:00.671Z,6.27
2022-11-07T10:17:48.810Z,6.28
2022-11-07T10:20:38.001Z,5.35
2022-11-07T10:23:28.982Z,5.07
2022-11-07T10:26:06.394Z,5.97
2022-11-07T10:28:45.738Z,6.38
2022-11-07T10:31:16.963Z,6.85
2022-11-07T10:33:53.597Z,7.55
2022-11-07T10:36:26.684Z,6.70
2022-11-07T10:38:56.612Z,7.40
2022-11-07T10:41:28.122Z,6.80
2022-11-07T10:44:01.433Z,6.80
2022-11-07T10:46:40.087Z,7.38
2022-11-07T10:49:21.704Z,7.20
2022-11-07T10:51:51.677Z,7.78
2022-11-07T10:54:23.402Z,7.70
2022-11-07T10:59:36.480Z,7.75
2022-11-07T11:02:21.524Z,7.88
2022-11-07T11:04:55.602Z,7.15
2022-11-07T11:07:34.380Z,7.78
2022-11-07T11:10:04.579Z,7.80
2022-11-07T11:15:15.148Z,8.48
2022-11-07T11:17:45.865Z,8.57
2022-11-07T11:20:35.305Z,10.30
2022-11-07T11:23:07.839Z,9.80
2022-11-07T11:25:47.293Z,10.93
2022-11-07T11:28:22.721Z,9.82
2022-11-07T11:30:59.024Z,9.80
2022-11-07T11:33:34.342Z,10.57
2022-11-07T11:36:13.276Z,10.13
2022-11-07T11:38:42.857Z,9.77
2022-11-07T11:41:26.811Z,10.82
2022-11-07T11:44:00.745Z,10.52
2022-11-07T11:46:42.391Z,10.15
2022-11-07T11:49:17.233Z,10.75
2022-11-07T11:51:58.764Z,11.25
2022-11-07T11:54:33.063Z,10.52
2022-11-07T11:57:06.804Z,10.27
2022-11-07T11:59:59.811Z,10.80
2022-11-07T12:02:50.853Z,10.82
2022-11-07T12:05:36.829Z,11.35
2022-11-07T12:08:22.716Z,11.65
2022-11-07T12:11:01.017Z,11.98
2022-11-07T12:13:38.777Z,12.05
2022-11-07T12:16:15.932Z,12.82
2022-11-07T12:18:54.691Z,11.68
2022-11-07T12:21:32.116Z,11.63
2022-11-07T12:24:17.830Z,12.23
2022-11-07T12:26:57.901Z,12.38
2022-11-07T12:29:42.789Z,12.88
2022-11-07T12:32:18.514Z,12.70
2022-11-07T12:35:01.851Z,13.85
2022-11-07T12:38:00.979Z,13.65
2022-11-07T12:40:43.243Z,14.70
2022-11-07T12:43:24.796Z,13.27
2022-11-07T12:46:07.079Z,13.60
2022-11-07T12:55:57.679Z,10.43
2022-11-07T12:58:31.224Z,11.88
2022-11-07T13:01:16.245Z,10.80
2022-11-07T13:03:54.796Z,11.65
2022-11-07T13:06:33.164Z,12.13
2022-11-07T13:09:12.507Z,11.40
2022-11-07T13:11:50.536Z,13.00
2022-11-07T13:14:30.085Z,12.43
2022-11-07T13:17:17.385Z,10.93
2022-11-07T13:19:49.759Z,13.25
2022-11-07T13:22:25.490Z,12.82
2022-11-07T13:25:01.608Z,13.25
2022-11-07T13:27:38.855Z,12.10
2022-11-07T13:30:22.550Z,12.07
2022-11-07T13:32:56.858Z,12.68
2022-11-07T13:35:31.977Z,13.07
2022-11-07T13:38:08.526Z,13.50
2022-11-07T13:40:40.752Z,13.52
2022-11-07T13:45:52.358Z,12.10
2022-11-07T13:48:25.570Z,12.52
2022-11-07T13:51:03.120Z,11.65
2022-11-07T13:53:37.439Z,11.40
2022-11-07T13:56:17.239Z,11.63
2022-11-07T13:58:50.636Z,10.73
2022-11-07T14:01:19.996Z,9.52
2022-11-07T14:03:49.638Z,10.75
2022-11-07T14:06:24.920Z,11.30
2022-11-07T14:08:54.178Z,11.35
2022-11-07T14:11:24.766Z,12.18
2022-11-07T14:13:56.693Z,11.80
2022-11-07T14:19:00.084Z,11.75
2022-11-07T14:21:32.628Z,12.95
2022-11-07T14:24:07.139Z,13.00
2022-11-07T14:26:40.071Z,12.35
2022-11-07T14:29:24.079Z,12.35
2022-11-07T14:31:53.566Z,10.52
2022-11-07T14:34:24.532Z,11.43
2022-11-07T14:37:00.692Z,11.63
2022-11-07T14:39:32.303Z,10.60
2022-11-07T14:42:04.759Z,11.48
2022-11-07T14:47:23.890Z,11.10
2022-11-07T14:49:54.842Z,10.40
2022-11-07T14:52:25.827Z,11.07
2022-11-07T14:55:01.688Z,12.05
2022-11-07T14:57:39.390Z,11.73
2022-11-07T15:00:17.135Z,12.05
2022-11-07T15:02:54.314Z,12.10
2022-11-07T15:05:25.359Z,12.15
2022-11-07T15:08:00.731Z,12.67
2022-11-07T15:10:33.471Z,12.60
2022-11-07T15:13:05.564Z,12.43
2022-11-07T15:15:41.873Z,12.30
2022-11-07T15:18:29.037Z,9.35
2022-11-07T15:21:00.857Z,11.55
2022-11-07T15:23:37.205Z,11.82
2022-11-07T15:26:14.823Z,11.88
2022-11-07T15:28:48.613Z,11.45
2022-11-07T15:31:24.646Z,12.75
2022-11-07T15:34:01.089Z,12.90
2022-11-07T15:36:30.737Z,14.13
2022-11-07T15:39:00.361Z,13.15
2022-11-07T15:41:34.937Z,12.38
2022-11-07T15:44:04.351Z,11.73
2022-11-07T15:46:37.801Z,13.40
2022-11-07T15:49:07.838Z,13.07
2022-11-07T15:51:36.952Z,13.70
2022-11-07T15:54:11.446Z,12.43
2022-11-07T15:56:41.475Z,12.35
2022-11-07T15:59:19.292Z,13.73
2022-11-07T16:01:51.889Z,13.90
2022-11-07T16:04:21.252Z,15.32
2022-11-07T16:06:50.391Z,14.30
2022-11-07T16:09:22.391Z,15.40
2022-11-07T16:17:20.596Z,14.45
2022-11-07T16:19:50.002Z,15.68
2022-11-07T16:22:19.398Z,15.32
2022-11-07T16:24:53.904Z,15.05
2022-11-07T16:27:23.035Z,15.30
2022-11-07T16:29:52.366Z,14.68
2022-11-07T16:32:28.669Z,15.77
2022-11-07T16:34:58.093Z,17.15
2022-11-07T16:37:27.191Z,16.52
2022-11-07T16:39:56.529Z,15.90
2022-11-07T16:42:26.060Z,16.17
2022-11-07T16:44:55.528Z,15.85
2022-11-07T16:47:26.849Z,15.07
2022-11-07T16:49:56.252Z,15.35
2022-11-07T16:52:28.736Z,15.27
2022-11-07T16:54:58.796Z,15.23
2022-11-07T16:57:28.422Z,16.70
2022-11-07T16:59:57.623Z,15.90
2022-11-07T17:02:28.993Z,16.65
2022-11-07T17:05:00.206Z,16.90
2022-11-07T17:07:29.450Z,16.03
2022-11-07T17:09:58.770Z,16.38
2022-11-07T17:12:33.147Z,16.48
2022-11-07T17:15:02.768Z,16.88
2022-11-07T17:17:34.850Z,16.40
2022-11-07T17:20:04.453Z,17.40
2022-11-07T17:22:34.592Z,16.60
2022-11-07T17:25:04.625Z,16.02
2022-11-07T17:27:33.874Z,15.35
2022-11-07T17:30:08.194Z,16.60
2022-11-07T17:32:39.836Z,16.33
2022-11-07T17:35:31.092Z,17.90
2022-11-07T17:38:00.364Z,16.92
2022-11-07T17:40:32.493Z,16.00
2022-11-07T17:43:02.680Z,15.02
2022-11-07T17:45:36.991Z,15.48
2022-11-07T17:48:08.743Z,15.45
2022-11-07T17:53:06.918Z,13.63
2022-11-07T17:55:46.480Z,14.63
2022-11-07T17:58:16.304Z,14.55
2022-11-07T18:00:47.859Z,14.43
2022-11-07T18:03:19.032Z,13.90
2022-11-07T18:05:50.261Z,15.27
2022-11-07T18:08:38.457Z,14.10
2022-11-07T18:11:09.296Z,14.80
2022-11-07T18:13:38.477Z,14.90
2022-11-07T18:16:12.137Z,14.90
2022-11-07T18:18:43.351Z,14.85
2022-11-07T18:21:13.224Z,15.02
2022-11-07T18:23:43.227Z,14.65
2022-11-07T18:26:17.954Z,15.93
2022-11-07T18:28:47.326Z,16.70
2022-11-07T18:31:24.724Z,16.52
2022-11-07T18:34:00.935Z,18.27
2022-11-07T18:36:31.279Z,17.30
2022-11-07T18:39:04.063Z,17.92
2022-11-07T18:41:39.262Z,18.23
2022-11-07T18:44:09.060Z,17.10
2022-11-07T18:46:43.749Z,17.77
2022-11-07T18:49:18.539Z,16.73
2022-11-07T18:51:53.242Z,16.13
2022-11-07T18:54:25.321Z,16.13
2022-11-07T18:56:54.769Z,16.60
2022-11-07T18:59:24.192Z,16.55
2022-11-07T19:01:58.561Z,15.77
2022-11-07T19:04:29.960Z,15.18
2022-11-07T19:07:06.839Z,14.63
2022-11-07T19:09:38.922Z,15.52
2022-11-07T19:12:17.026Z,14.95
2022-11-07T19:14:49.197Z,14.65
2022-11-07T19:17:18.594Z,14.90
2022-11-07T19:19:50.016Z,14.77
2022-11-07T19:22:20.599Z,14.77
2022-11-07T19:24:51.371Z,16.02
2022-11-07T19:27:21.961Z,15.52
2022-11-07T19:29:51.654Z,15.38
2022-11-07T19:32:29.738Z,15.68
2022-11-07T19:35:01.054Z,16.27
2022-11-07T19:37:35.014Z,15.98
2022-11-07T19:40:04.822Z,15.15
2022-11-07T19:42:33.960Z,16.38
2022-11-07T19:45:03.445Z,15.55
2022-11-07T19:47:33.459Z,16.15
2022-11-07T19:50:10.632Z,15.77
2022-11-07T19:52:40.507Z,15.50
2022-11-07T19:55:10.880Z,14.75
2022-11-07T19:57:41.300Z,15.38
2022-11-07T20:00:13.241Z,15.45
2022-11-07T20:02:44.971Z,15.35
2022-11-07T20:07:56.273Z,13.93
2022-11-07T20:10:28.840Z,16.13
2022-11-07T20:12:58.397Z,14.70
2022-11-07T20:15:27.716Z,15.85
2022-11-07T20:18:03.696Z,15.63
2022-11-07T20:20:35.035Z,16.15
2022-11-07T20:23:04.471Z,15.40
2022-11-07T20:25:35.964Z,16.02
2022-11-07T20:28:16.687Z,14.80
2022-11-07T20:30:46.469Z,15.07
2022-11-07T20:33:16.378Z,16.80
2022-11-07T20:35:53.290Z,16.80
2022-11-07T20:38:22.888Z,16.30
2022-11-07T20:40:52.168Z,16.13
2022-11-07T20:43:28.033Z,16.00
2022-11-07T20:45:57.924Z,16.75
2022-11-07T20:48:28.710Z,15.98
2022-11-07T20:51:05.316Z,16.42
2022-11-07T20:53:34.488Z,17.50
2022-11-07T20:56:07.974Z,16.85
2022-11-07T20:58:39.509Z,16.65
2022-11-07T21:01:10.359Z,16.77
2022-11-07T21:03:40.484Z,16.92
2022-11-07T21:08:51.967Z,18.23
2022-11-07T21:14:07.866Z,17.75
2022-11-07T21:16:43.854Z,16.63
2022-11-07T21:19:17.006Z,17.50
2022-11-07T21:21:49.102Z,18.10
2022-11-07T21:24:18.318Z,18.50
2022-11-07T21:26:47.597Z,16.77
2022-11-07T21:32:00.739Z,17.33
2022-11-07T21:34:30.074Z,17.65
2022-11-07T21:37:06.372Z,17.60
2022-11-07T21:39:35.769Z,16.90
2022-11-07T21:42:05.054Z,17.80
2022-11-07T21:44:34.476Z,15.98
2022-11-07T21:47:03.594Z,16.30
2022-11-07T21:49:33.088Z,16.98
2022-11-07T21:52:06.703Z,17.33
2022-11-07T21:54:38.599Z,16.77
2022-11-07T21:57:14.194Z,17.48
2022-11-07T21:59:45.673Z,18.25
2022-11-07T22:04:55.380Z,19.08
2022-11-07T22:07:26.569Z,19.20
2022-11-07T22:10:06.181Z,19.38
2022-11-07T22:12:40.566Z,19.80
2022-11-07T22:15:16.266Z,19.40
2022-11-07T22:17:45.494Z,20.55
2022-11-07T22:20:20.953Z,19.80
2022-11-07T22:22:52.209Z,19.42
2022-11-07T22:25:26.525Z,18.77
2022-11-07T22:27:55.924Z,19.23
2022-11-07T22:30:25.300Z,19.73
2022-11-07T22:32:55.102Z,18.73
2022-11-07T22:35:24.356Z,19.25
2022-11-07T22:37:56.150Z,19.20
2022-11-07T22:40:25.619Z,19.08
2022-11-07T22:42:55.741Z,17.38
2022-11-07T22:45:30.363Z,19.98
2022-11-07T22:47:59.540Z,19.65
2022-11-07T22:50:28.800Z,18.88
2022-11-07T22:55:37.789Z,17.15
2022-11-07T22:58:07.480Z,18.67
2022-11-07T23:00:36.701Z,18.50
2022-11-07T23:03:06.177Z,17.30
2022-11-07T23:05:36.939Z,18.20
2022-11-07T23:08:13.182Z,18.25
2022-11-07T23:10:42.574Z,18.17
2022-11-07T23:13:11.844Z,18.48
2022-11-07T23:15:41.148Z,20.05
2022-11-07T23:18:10.368Z,19.58
2022-11-07T23:20:57.514Z,20.45
2022-11-07T23:23:31.186Z,20.35
2022-11-07T23:26:03.215Z,20.08
2022-11-07T23:31:17.807Z,18.80
2022-11-07T23:33:47.160Z,16.98
2022-11-07T23:36:26.975Z,19.80
2022-11-07T23:38:58.176Z,18.67
2022-11-07T23:41:27.543Z,19.63
2022-11-07T23:43:56.542Z,18.25
2022-11-07T23:46:38.787Z,19.45
2022-11-07T23:49:23.304Z,19.08
2022-11-07T23:51:57.559Z,17.83
2022-11-07T23:54:41.564Z,18.65
2022-11-07T23:57:11.089Z,18.83
2022-11-07T23:59:53.263Z,18.48
